Iguatemi, Brazil
Current Conditions -  °F | °C
As of 6:00 PM on Friday 19 Dec 2014 (Local Time) from SBCA Reporting Station
Scattered Clouds Scattered Clouds  
Wind Chill: 82°   Ceiling: Unl
Heat Index: 83°   Visibility: 6mi
Dew Point: 61°   Wind: 12mph
Humidity: 48%   Direction: 280°W
Pressure: 29.77"   Gusts: NA
Location:  23.68°S, 54.56°W
Report Text: SBCA 192100Z 28010KT 9999 SCT030 28/16 Q1008
Loading
Personal Weather Stations






























Interactive Weather Map New forecast layout! Learn more

10-Day Weather Forecast

Advertisements
Track Severe Weather on mobile